12  °C
Temperature
54  °F
Temperature
43  °F
 Dewpoint
6  °C
  Dewpoint
67  %
 Humidity
  Temperature
24  km/h
Wind Speed
13  kts
Wind Speed
15  mph
Wind Speed
6.7  m/s
Wind Speed
300°
West North
West

Wind Speed
Partly Cloudy
Conditions
Pressure 1009.92 (hPa) - 29.82 (inHG)
Visibility 0.0 (km) - 0.0 (mi)

Sky Conditions
LSMM
Location Meiringen 6 km (3.73 mi)
Metar :LSMM 252150Z AUTO 30013KT 250V330 9999NDV FEW047 SCT120 12/06 Q1010 RMK
Thu 25th April 23:50 pm

Nearest Airport
https://www.checkwx.com/weather/LSMM
  Metar Aviation API Data Provided by https://www.checkwx.com/ Original CSS/SVG/PHP scripts by weather34.com © 2015-2019